Aviation Digital Data Service (ADDS)

Output produced by METARs form (1505 UTC 20 March 2019)
found at http://www.aviationweather.gov/metar/data/
 
METAR text: GQNO 201430Z 10005KT 050V140 8000 NSC 38/M11 Q1008 NOSIG
Conditions at: GQNO (NOUAKCHOTT/OUMTO, MR) observed 1430 UTC 20 March 2019
Temperature: 38.0°C (100°F)
Dewpoint: -11.0°C (12°F) [RH =  4%]
Pressure (altimeter): 29.76 inches Hg (1008.0 mb)
Winds: from the E (100 degrees) at 6 MPH (5 knots; 2.6 m/s)
Visibility: 5 miles ( 8 km)
Ceiling: at least 12,000 feet AGL
Clouds: sky clear below 12,000 feet AGL
Weather: no significant weather observed at this time

METAR text: GQNO 201400Z 11006KT 080V140 8000 NSC 37/M11 Q1008 NOSIG
Conditions at: GQNO (NOUAKCHOTT/OUMTO, MR) observed 1400 UTC 20 March 2019
Temperature: 37.0°C (99°F)
Dewpoint: -11.0°C (12°F) [RH =  4%]
Pressure (altimeter): 29.76 inches Hg (1008.0 mb)
Winds: from the ESE (110 degrees) at 7 MPH (6 knots; 3.1 m/s)
Visibility: 5 miles ( 8 km)
Ceiling: at least 12,000 feet AGL
Clouds: sky clear below 12,000 feet AGL
Weather: no significant weather observed at this time

METAR text: GQNO 201330Z 12009KT 8000 NSC 36/M12 Q1009 NOSIG
Conditions at: GQNO (NOUAKCHOTT/OUMTO, MR) observed 1330 UTC 20 March 2019
Temperature: 36.0°C (97°F)
Dewpoint: -12.0°C (10°F) [RH =  4%]
Pressure (altimeter): 29.79 inches Hg (1009.0 mb)
Winds: from the ESE (120 degrees) at 10 MPH (9 knots; 4.6 m/s)
Visibility: 5 miles ( 8 km)
Ceiling: at least 12,000 feet AGL
Clouds: sky clear below 12,000 feet AGL
Weather: no significant weather observed at this time

METAR text: GQNO 201300Z 10007KT 060V130 8000 NSC 35/M13 Q1009 NOSIG
Conditions at: GQNO (NOUAKCHOTT/OUMTO, MR) observed 1300 UTC 20 March 2019
Temperature: 35.0°C (95°F)
Dewpoint: -13.0°C ( 9°F) [RH =  4%]
Pressure (altimeter): 29.79 inches Hg (1009.0 mb)
Winds: from the E (100 degrees) at 8 MPH (7 knots; 3.6 m/s)
Visibility: 5 miles ( 8 km)
Ceiling: at least 12,000 feet AGL
Clouds: sky clear below 12,000 feet AGL
Weather: no significant weather observed at this time

METAR text: GQNO 201230Z 10010KT 070V130 8000 NSC 34/M09 Q1010 NOSIG
Conditions at: GQNO (NOUAKCHOTT/OUMTO, MR) observed 1230 UTC 20 March 2019
Temperature: 34.0°C (93°F)
Dewpoint: -9.0°C (16°F) [RH =  6%]
Pressure (altimeter): 29.82 inches Hg (1010.0 mb)
Winds: from the E (100 degrees) at 12 MPH (10 knots; 5.1 m/s)
Visibility: 5 miles ( 8 km)
Ceiling: at least 12,000 feet AGL
Clouds: sky clear below 12,000 feet AGL
Weather: no significant weather observed at this time

METAR text: GQNO 201200Z 10010KT 8000 NSC 32/M05 Q1010 NOSIG
Conditions at: GQNO (NOUAKCHOTT/OUMTO, MR) observed 1200 UTC 20 March 2019
Temperature: 32.0°C (90°F)
Dewpoint: -5.0°C (23°F) [RH =  9%]
Pressure (altimeter): 29.82 inches Hg (1010.0 mb)
Winds: from the E (100 degrees) at 12 MPH (10 knots; 5.1 m/s)
Visibility: 5 miles ( 8 km)
Ceiling: at least 12,000 feet AGL
Clouds: sky clear below 12,000 feet AGL
Weather: no significant weather observed at this time

METAR text: GQNO 201130Z 09010KT 8000 NSC 30/M05 Q1010 NOSIG
Conditions at: GQNO (NOUAKCHOTT/OUMTO, MR) observed 1130 UTC 20 March 2019
Temperature: 30.0°C (86°F)
Dewpoint: -5.0°C (23°F) [RH = 10%]
Pressure (altimeter): 29.82 inches Hg (1010.0 mb)
Winds: from the E (90 degrees) at 12 MPH (10 knots; 5.1 m/s)
Visibility: 5 miles ( 8 km)
Ceiling: at least 12,000 feet AGL
Clouds: sky clear below 12,000 feet AGL
Weather: no significant weather observed at this time

METAR text: GQNO 201100Z 08009KT 8000 NSC 29/M02 Q1011 NOSIG
Conditions at: GQNO (NOUAKCHOTT/OUMTO, MR) observed 1100 UTC 20 March 2019
Temperature: 29.0°C (84°F)
Dewpoint: -2.0°C (28°F) [RH = 13%]
Pressure (altimeter): 29.85 inches Hg (1011.0 mb)
Winds: from the E (80 degrees) at 10 MPH (9 knots; 4.6 m/s)
Visibility: 5 miles ( 8 km)
Ceiling: at least 12,000 feet AGL
Clouds: sky clear below 12,000 feet AGL
Weather: no significant weather observed at this time

METAR text: GQNO 201030Z 05006KT 8000 NSC 27/03 Q1011 NOSIG
Conditions at: GQNO (NOUAKCHOTT/OUMTO, MR) observed 1030 UTC 20 March 2019
Temperature: 27.0°C (81°F)
Dewpoint: 3.0°C (37°F) [RH = 21%]
Pressure (altimeter): 29.85 inches Hg (1011.0 mb)
Winds: from the NE (50 degrees) at 7 MPH (6 knots; 3.1 m/s)
Visibility: 5 miles ( 8 km)
Ceiling: at least 12,000 feet AGL
Clouds: sky clear below 12,000 feet AGL
Weather: no significant weather observed at this time

METAR text: GQNO 201000Z 04008KT 8000 NSC 24/06 Q1011 NOSIG
Conditions at: GQNO (NOUAKCHOTT/OUMTO, MR) observed 1000 UTC 20 March 2019
Temperature: 24.0°C (75°F)
Dewpoint: 6.0°C (43°F) [RH = 31%]
Pressure (altimeter): 29.85 inches Hg (1011.0 mb)
Winds: from the NE (40 degrees) at 9 MPH (8 knots; 4.1 m/s)
Visibility: 5 miles ( 8 km)
Ceiling: at least 12,000 feet AGL
Clouds: sky clear below 12,000 feet AGL
Weather: no significant weather observed at this time

METAR text: GQNO 200930Z 02008KT 8000 NSC 22/10 Q1010 NOSIG
Conditions at: GQNO (NOUAKCHOTT/OUMTO, MR) observed 0930 UTC 20 March 2019
Temperature: 22.0°C (72°F)
Dewpoint: 10.0°C (50°F) [RH = 46%]
Pressure (altimeter): 29.82 inches Hg (1010.0 mb)
Winds: from the NNE (20 degrees) at 9 MPH (8 knots; 4.1 m/s)
Visibility: 5 miles ( 8 km)
Ceiling: at least 12,000 feet AGL
Clouds: sky clear below 12,000 feet AGL
Weather: no significant weather observed at this time

METAR text: GQNO 200900Z 01008KT 8000 NSC 20/11 Q1010 NOSIG
Conditions at: GQNO (NOUAKCHOTT/OUMTO, MR) observed 0900 UTC 20 March 2019
Temperature: 20.0°C (68°F)
Dewpoint: 11.0°C (52°F) [RH = 56%]
Pressure (altimeter): 29.82 inches Hg (1010.0 mb)
Winds: from the N (10 degrees) at 9 MPH (8 knots; 4.1 m/s)
Visibility: 5 miles ( 8 km)
Ceiling: at least 12,000 feet AGL
Clouds: sky clear below 12,000 feet AGL
Weather: no significant weather observed at this time

METAR text: GQNO 200830Z 01009KT 8000 NSC 19/12 Q1010 NOSIG
Conditions at: GQNO (NOUAKCHOTT/OUMTO, MR) observed 0830 UTC 20 March 2019
Temperature: 19.0°C (66°F)
Dewpoint: 12.0°C (54°F) [RH = 64%]
Pressure (altimeter): 29.82 inches Hg (1010.0 mb)
Winds: from the N (10 degrees) at 10 MPH (9 knots; 4.6 m/s)
Visibility: 5 miles ( 8 km)
Ceiling: at least 12,000 feet AGL
Clouds: sky clear below 12,000 feet AGL
Weather: no significant weather observed at this time

METAR text: GQNO 200800Z 02007KT 8000 NSC 17/12 Q1010 NOSIG
Conditions at: GQNO (NOUAKCHOTT/OUMTO, MR) observed 0800 UTC 20 March 2019
Temperature: 17.0°C (63°F)
Dewpoint: 12.0°C (54°F) [RH = 72%]
Pressure (altimeter): 29.82 inches Hg (1010.0 mb)
Winds: from the NNE (20 degrees) at 8 MPH (7 knots; 3.6 m/s)
Visibility: 5 miles ( 8 km)
Ceiling: at least 12,000 feet AGL
Clouds: sky clear below 12,000 feet AGL
Weather: no significant weather observed at this time

METAR text: GQNO 200730Z 02007KT 8000 NSC 17/12 Q1009 NOSIG
Conditions at: GQNO (NOUAKCHOTT/OUMTO, MR) observed 0730 UTC 20 March 2019
Temperature: 17.0°C (63°F)
Dewpoint: 12.0°C (54°F) [RH = 72%]
Pressure (altimeter): 29.79 inches Hg (1009.0 mb)
Winds: from the NNE (20 degrees) at 8 MPH (7 knots; 3.6 m/s)
Visibility: 5 miles ( 8 km)
Ceiling: at least 12,000 feet AGL
Clouds: sky clear below 12,000 feet AGL
Weather: no significant weather observed at this time

METAR text: GQNO 200700Z 02007KT 8000 NSC 18/12 Q1009 NOSIG
Conditions at: GQNO (NOUAKCHOTT/OUMTO, MR) observed 0700 UTC 20 March 2019
Temperature: 18.0°C (64°F)
Dewpoint: 12.0°C (54°F) [RH = 68%]
Pressure (altimeter): 29.79 inches Hg (1009.0 mb)
Winds: from the NNE (20 degrees) at 8 MPH (7 knots; 3.6 m/s)
Visibility: 5 miles ( 8 km)
Ceiling: at least 12,000 feet AGL
Clouds: sky clear below 12,000 feet AGL
Weather: no significant weather observed at this time

METAR text: GQNO 200630Z 01009KT 8000 NSC 19/12 Q1009 NOSIG
Conditions at: GQNO (NOUAKCHOTT/OUMTO, MR) observed 0630 UTC 20 March 2019
Temperature: 19.0°C (66°F)
Dewpoint: 12.0°C (54°F) [RH = 64%]
Pressure (altimeter): 29.79 inches Hg (1009.0 mb)
Winds: from the N (10 degrees) at 10 MPH (9 knots; 4.6 m/s)
Visibility: 5 miles ( 8 km)
Ceiling: at least 12,000 feet AGL
Clouds: sky clear below 12,000 feet AGL
Weather: no significant weather observed at this time

METAR text: GQNO 200600Z 01011KT 8000 NSC 19/13 Q1009 NOSIG
Conditions at: GQNO (NOUAKCHOTT/OUMTO, MR) observed 0600 UTC 20 March 2019
Temperature: 19.0°C (66°F)
Dewpoint: 13.0°C (55°F) [RH = 68%]
Pressure (altimeter): 29.79 inches Hg (1009.0 mb)
Winds: from the N (10 degrees) at 13 MPH (11 knots; 5.7 m/s)
Visibility: 5 miles ( 8 km)
Ceiling: at least 12,000 feet AGL
Clouds: sky clear below 12,000 feet AGL
Weather: no significant weather observed at this time

METAR text: GQNO 200530Z 01010KT 8000 NSC 19/13 Q1009 NOSIG
Conditions at: GQNO (NOUAKCHOTT/OUMTO, MR) observed 0530 UTC 20 March 2019
Temperature: 19.0°C (66°F)
Dewpoint: 13.0°C (55°F) [RH = 68%]
Pressure (altimeter): 29.79 inches Hg (1009.0 mb)
Winds: from the N (10 degrees) at 12 MPH (10 knots; 5.1 m/s)
Visibility: 5 miles ( 8 km)
Ceiling: at least 12,000 feet AGL
Clouds: sky clear below 12,000 feet AGL
Weather: no significant weather observed at this time

METAR text: GQNO 200500Z 36009KT 8000 NSC 19/13 Q1009 NOSIG
Conditions at: GQNO (NOUAKCHOTT/OUMTO, MR) observed 0500 UTC 20 March 2019
Temperature: 19.0°C (66°F)
Dewpoint: 13.0°C (55°F) [RH = 68%]
Pressure (altimeter): 29.79 inches Hg (1009.0 mb)
Winds: from the N (360 degrees) at 10 MPH (9 knots; 4.6 m/s)
Visibility: 5 miles ( 8 km)
Ceiling: at least 12,000 feet AGL
Clouds: sky clear below 12,000 feet AGL
Weather: no significant weather observed at this time

METAR text: GQNO 200430Z 36009KT 8000 NSC 19/13 Q1009 NOSIG
Conditions at: GQNO (NOUAKCHOTT/OUMTO, MR) observed 0430 UTC 20 March 2019
Temperature: 19.0°C (66°F)
Dewpoint: 13.0°C (55°F) [RH = 68%]
Pressure (altimeter): 29.79 inches Hg (1009.0 mb)
Winds: from the N (360 degrees) at 10 MPH (9 knots; 4.6 m/s)
Visibility: 5 miles ( 8 km)
Ceiling: at least 12,000 feet AGL
Clouds: sky clear below 12,000 feet AGL
Weather: no significant weather observed at this time

METAR text: GQNO 200400Z 36010KT 8000 NSC 19/14 Q1009 NOSIG
Conditions at: GQNO (NOUAKCHOTT/OUMTO, MR) observed 0400 UTC 20 March 2019
Temperature: 19.0°C (66°F)
Dewpoint: 14.0°C (57°F) [RH = 73%]
Pressure (altimeter): 29.79 inches Hg (1009.0 mb)
Winds: from the N (360 degrees) at 12 MPH (10 knots; 5.1 m/s)
Visibility: 5 miles ( 8 km)
Ceiling: at least 12,000 feet AGL
Clouds: sky clear below 12,000 feet AGL
Weather: no significant weather observed at this time

METAR text: GQNO 200330Z 36010KT 8000 NSC 19/14 Q1009 NOSIG
Conditions at: GQNO (NOUAKCHOTT/OUMTO, MR) observed 0330 UTC 20 March 2019
Temperature: 19.0°C (66°F)
Dewpoint: 14.0°C (57°F) [RH = 73%]
Pressure (altimeter): 29.79 inches Hg (1009.0 mb)
Winds: from the N (360 degrees) at 12 MPH (10 knots; 5.1 m/s)
Visibility: 5 miles ( 8 km)
Ceiling: at least 12,000 feet AGL
Clouds: sky clear below 12,000 feet AGL
Weather: no significant weather observed at this time

METAR text: GQNO 200300Z 35010KT 8000 NSC 19/15 Q1009 NOSIG
Conditions at: GQNO (NOUAKCHOTT/OUMTO, MR) observed 0300 UTC 20 March 2019
Temperature: 19.0°C (66°F)
Dewpoint: 15.0°C (59°F) [RH = 78%]
Pressure (altimeter): 29.79 inches Hg (1009.0 mb)
Winds: from the N (350 degrees) at 12 MPH (10 knots; 5.1 m/s)
Visibility: 5 miles ( 8 km)
Ceiling: at least 12,000 feet AGL
Clouds: sky clear below 12,000 feet AGL
Weather: no significant weather observed at this time

METAR text: GQNO 200230Z 35010KT 8000 NSC 19/15 Q1009 NOSIG
Conditions at: GQNO (NOUAKCHOTT/OUMTO, MR) observed 0230 UTC 20 March 2019
Temperature: 19.0°C (66°F)
Dewpoint: 15.0°C (59°F) [RH = 78%]
Pressure (altimeter): 29.79 inches Hg (1009.0 mb)
Winds: from the N (350 degrees) at 12 MPH (10 knots; 5.1 m/s)
Visibility: 5 miles ( 8 km)
Ceiling: at least 12,000 feet AGL
Clouds: sky clear below 12,000 feet AGL
Weather: no significant weather observed at this time

METAR text: GQNO 200200Z 35010KT 8000 NSC 19/15 Q1010 NOSIG
Conditions at: GQNO (NOUAKCHOTT/OUMTO, MR) observed 0200 UTC 20 March 2019
Temperature: 19.0°C (66°F)
Dewpoint: 15.0°C (59°F) [RH = 78%]
Pressure (altimeter): 29.82 inches Hg (1010.0 mb)
Winds: from the N (350 degrees) at 12 MPH (10 knots; 5.1 m/s)
Visibility: 5 miles ( 8 km)
Ceiling: at least 12,000 feet AGL
Clouds: sky clear below 12,000 feet AGL
Weather: no significant weather observed at this time

METAR text: GQNO 200130Z 34010KT 8000 NSC 20/16 Q1010 NOSIG
Conditions at: GQNO (NOUAKCHOTT/OUMTO, MR) observed 0130 UTC 20 March 2019
Temperature: 20.0°C (68°F)
Dewpoint: 16.0°C (61°F) [RH = 78%]
Pressure (altimeter): 29.82 inches Hg (1010.0 mb)
Winds: from the NNW (340 degrees) at 12 MPH (10 knots; 5.1 m/s)
Visibility: 5 miles ( 8 km)
Ceiling: at least 12,000 feet AGL
Clouds: sky clear below 12,000 feet AGL
Weather: no significant weather observed at this time

METAR text: GQNO 200100Z 34010KT 8000 NSC 20/16 Q1010 NOSIG
Conditions at: GQNO (NOUAKCHOTT/OUMTO, MR) observed 0100 UTC 20 March 2019
Temperature: 20.0°C (68°F)
Dewpoint: 16.0°C (61°F) [RH = 78%]
Pressure (altimeter): 29.82 inches Hg (1010.0 mb)
Winds: from the NNW (340 degrees) at 12 MPH (10 knots; 5.1 m/s)
Visibility: 5 miles ( 8 km)
Ceiling: at least 12,000 feet AGL
Clouds: sky clear below 12,000 feet AGL
Weather: no significant weather observed at this time

METAR text: GQNO 200030Z 34010KT 8000 NSC 20/17 Q1010 NOSIG
Conditions at: GQNO (NOUAKCHOTT/OUMTO, MR) observed 0030 UTC 20 March 2019
Temperature: 20.0°C (68°F)
Dewpoint: 17.0°C (63°F) [RH = 83%]
Pressure (altimeter): 29.82 inches Hg (1010.0 mb)
Winds: from the NNW (340 degrees) at 12 MPH (10 knots; 5.1 m/s)
Visibility: 5 miles ( 8 km)
Ceiling: at least 12,000 feet AGL
Clouds: sky clear below 12,000 feet AGL
Weather: no significant weather observed at this time

METAR text: GQNO 200000Z 34010KT 8000 NSC 20/17 Q1010 NOSIG
Conditions at: GQNO (NOUAKCHOTT/OUMTO, MR) observed 0000 UTC 20 March 2019
Temperature: 20.0°C (68°F)
Dewpoint: 17.0°C (63°F) [RH = 83%]
Pressure (altimeter): 29.82 inches Hg (1010.0 mb)
Winds: from the NNW (340 degrees) at 12 MPH (10 knots; 5.1 m/s)
Visibility: 5 miles ( 8 km)
Ceiling: at least 12,000 feet AGL
Clouds: sky clear below 12,000 feet AGL
Weather: no significant weather observed at this time

METAR text: GQNO 192330Z 34010KT 8000 NSC 21/16 Q1010 NOSIG
Conditions at: GQNO (NOUAKCHOTT/OUMTO, MR) observed 2330 UTC 19 March 2019
Temperature: 21.0°C (70°F)
Dewpoint: 16.0°C (61°F) [RH = 73%]
Pressure (altimeter): 29.82 inches Hg (1010.0 mb)
Winds: from the NNW (340 degrees) at 12 MPH (10 knots; 5.1 m/s)
Visibility: 5 miles ( 8 km)
Ceiling: at least 12,000 feet AGL
Clouds: sky clear below 12,000 feet AGL
Weather: no significant weather observed at this time

METAR text: GQNO 192300Z 34011KT 8000 NSC 21/17 Q1010 NOSIG
Conditions at: GQNO (NOUAKCHOTT/OUMTO, MR) observed 2300 UTC 19 March 2019
Temperature: 21.0°C (70°F)
Dewpoint: 17.0°C (63°F) [RH = 78%]
Pressure (altimeter): 29.82 inches Hg (1010.0 mb)
Winds: from the NNW (340 degrees) at 13 MPH (11 knots; 5.7 m/s)
Visibility: 5 miles ( 8 km)
Ceiling: at least 12,000 feet AGL
Clouds: sky clear below 12,000 feet AGL
Weather: no significant weather observed at this time

METAR text: GQNO 192230Z 33012KT 8000 NSC 21/17 Q1010 NOSIG
Conditions at: GQNO (NOUAKCHOTT/OUMTO, MR) observed 2230 UTC 19 March 2019
Temperature: 21.0°C (70°F)
Dewpoint: 17.0°C (63°F) [RH = 78%]
Pressure (altimeter): 29.82 inches Hg (1010.0 mb)
Winds: from the NNW (330 degrees) at 14 MPH (12 knots; 6.2 m/s)
Visibility: 5 miles ( 8 km)
Ceiling: at least 12,000 feet AGL
Clouds: sky clear below 12,000 feet AGL
Weather: no significant weather observed at this time

METAR text: GQNO 192200Z 34011KT 8000 NSC 22/16 Q1010 NOSIG
Conditions at: GQNO (NOUAKCHOTT/OUMTO, MR) observed 2200 UTC 19 March 2019
Temperature: 22.0°C (72°F)
Dewpoint: 16.0°C (61°F) [RH = 69%]
Pressure (altimeter): 29.82 inches Hg (1010.0 mb)
Winds: from the NNW (340 degrees) at 13 MPH (11 knots; 5.7 m/s)
Visibility: 5 miles ( 8 km)
Ceiling: at least 12,000 feet AGL
Clouds: sky clear below 12,000 feet AGL
Weather: no significant weather observed at this time

METAR text: GQNO 192130Z 34014KT 8000 NSC 22/16 Q1010 NOSIG
Conditions at: GQNO (NOUAKCHOTT/OUMTO, MR) observed 2130 UTC 19 March 2019
Temperature: 22.0°C (72°F)
Dewpoint: 16.0°C (61°F) [RH = 69%]
Pressure (altimeter): 29.82 inches Hg (1010.0 mb)
Winds: from the NNW (340 degrees) at 16 MPH (14 knots; 7.2 m/s)
Visibility: 5 miles ( 8 km)
Ceiling: at least 12,000 feet AGL
Clouds: sky clear below 12,000 feet AGL
Weather: no significant weather observed at this time

METAR text: GQNO 192100Z 33013KT 8000 NSC 22/16 Q1009 NOSIG
Conditions at: GQNO (NOUAKCHOTT/OUMTO, MR) observed 2100 UTC 19 March 2019
Temperature: 22.0°C (72°F)
Dewpoint: 16.0°C (61°F) [RH = 69%]
Pressure (altimeter): 29.79 inches Hg (1009.0 mb)
Winds: from the NNW (330 degrees) at 15 MPH (13 knots; 6.7 m/s)
Visibility: 5 miles ( 8 km)
Ceiling: at least 12,000 feet AGL
Clouds: sky clear below 12,000 feet AGL
Weather: no significant weather observed at this time

METAR text: GQNO 192030Z 34012KT 8000 NSC 22/15 Q1009 NOSIG
Conditions at: GQNO (NOUAKCHOTT/OUMTO, MR) observed 2030 UTC 19 March 2019
Temperature: 22.0°C (72°F)
Dewpoint: 15.0°C (59°F) [RH = 65%]
Pressure (altimeter): 29.79 inches Hg (1009.0 mb)
Winds: from the NNW (340 degrees) at 14 MPH (12 knots; 6.2 m/s)
Visibility: 5 miles ( 8 km)
Ceiling: at least 12,000 feet AGL
Clouds: sky clear below 12,000 feet AGL
Weather: no significant weather observed at this time

METAR text: GQNO 192000Z 33013KT 8000 NSC 23/15 Q1009 NOSIG
Conditions at: GQNO (NOUAKCHOTT/OUMTO, MR) observed 2000 UTC 19 March 2019
Temperature: 23.0°C (73°F)
Dewpoint: 15.0°C (59°F) [RH = 61%]
Pressure (altimeter): 29.79 inches Hg (1009.0 mb)
Winds: from the NNW (330 degrees) at 15 MPH (13 knots; 6.7 m/s)
Visibility: 5 miles ( 8 km)
Ceiling: at least 12,000 feet AGL
Clouds: sky clear below 12,000 feet AGL
Weather: no significant weather observed at this time

METAR text: GQNO 191930Z 33013KT 8000 NSC 24/14 Q1009 NOSIG
Conditions at: GQNO (NOUAKCHOTT/OUMTO, MR) observed 1930 UTC 19 March 2019
Temperature: 24.0°C (75°F)
Dewpoint: 14.0°C (57°F) [RH = 54%]
Pressure (altimeter): 29.79 inches Hg (1009.0 mb)
Winds: from the NNW (330 degrees) at 15 MPH (13 knots; 6.7 m/s)
Visibility: 5 miles ( 8 km)
Ceiling: at least 12,000 feet AGL
Clouds: sky clear below 12,000 feet AGL
Weather: no significant weather observed at this time

METAR text: GQNO 191900Z 33015KT 8000 NSC 25/13 Q1008 NOSIG
Conditions at: GQNO (NOUAKCHOTT/OUMTO, MR) observed 1900 UTC 19 March 2019
Temperature: 25.0°C (77°F)
Dewpoint: 13.0°C (55°F) [RH = 47%]
Pressure (altimeter): 29.76 inches Hg (1008.0 mb)
Winds: from the NNW (330 degrees) at 17 MPH (15 knots; 7.7 m/s)
Visibility: 5 miles ( 8 km)
Ceiling: at least 12,000 feet AGL
Clouds: sky clear below 12,000 feet AGL
Weather: no significant weather observed at this time

METAR text: GQNO 191830Z 33015KT 8000 NSC 26/13 Q1008 NOSIG
Conditions at: GQNO (NOUAKCHOTT/OUMTO, MR) observed 1830 UTC 19 March 2019
Temperature: 26.0°C (79°F)
Dewpoint: 13.0°C (55°F) [RH = 45%]
Pressure (altimeter): 29.76 inches Hg (1008.0 mb)
Winds: from the NNW (330 degrees) at 17 MPH (15 knots; 7.7 m/s)
Visibility: 5 miles ( 8 km)
Ceiling: at least 12,000 feet AGL
Clouds: sky clear below 12,000 feet AGL
Weather: no significant weather observed at this time

METAR text: GQNO 191800Z 33015KT 8000 NSC 28/12 Q1008 NOSIG
Conditions at: GQNO (NOUAKCHOTT/OUMTO, MR) observed 1800 UTC 19 March 2019
Temperature: 28.0°C (82°F)
Dewpoint: 12.0°C (54°F) [RH = 37%]
Pressure (altimeter): 29.76 inches Hg (1008.0 mb)
Winds: from the NNW (330 degrees) at 17 MPH (15 knots; 7.7 m/s)
Visibility: 5 miles ( 8 km)
Ceiling: at least 12,000 feet AGL
Clouds: sky clear below 12,000 feet AGL
Weather: no significant weather observed at this time

METAR text: GQNO 191730Z 33014KT 8000 NSC 29/10 Q1008 NOSIG
Conditions at: GQNO (NOUAKCHOTT/OUMTO, MR) observed 1730 UTC 19 March 2019
Temperature: 29.0°C (84°F)
Dewpoint: 10.0°C (50°F) [RH = 31%]
Pressure (altimeter): 29.76 inches Hg (1008.0 mb)
Winds: from the NNW (330 degrees) at 16 MPH (14 knots; 7.2 m/s)
Visibility: 5 miles ( 8 km)
Ceiling: at least 12,000 feet AGL
Clouds: sky clear below 12,000 feet AGL
Weather: no significant weather observed at this time

METAR text: GQNO 191700Z 31012KT 8000 NSC 31/07 Q1008 NOSIG
Conditions at: GQNO (NOUAKCHOTT/OUMTO, MR) observed 1700 UTC 19 March 2019
Temperature: 31.0°C (88°F)
Dewpoint: 7.0°C (45°F) [RH = 22%]
Pressure (altimeter): 29.76 inches Hg (1008.0 mb)
Winds: from the NW (310 degrees) at 14 MPH (12 knots; 6.2 m/s)
Visibility: 5 miles ( 8 km)
Ceiling: at least 12,000 feet AGL
Clouds: sky clear below 12,000 feet AGL
Weather: no significant weather observed at this time

METAR text: GQNO 191630Z VRB04KT 8000 NSC 31/08 Q1008 NOSIG
Conditions at: GQNO (NOUAKCHOTT/OUMTO, MR) observed 1630 UTC 19 March 2019
Temperature: 31.0°C (88°F)
Dewpoint: 8.0°C (46°F) [RH = 24%]
Pressure (altimeter): 29.76 inches Hg (1008.0 mb)
Winds: variable direction winds at 5 MPH (4 knots; 2.1 m/s)
Visibility: 5 miles ( 8 km)
Ceiling: at least 12,000 feet AGL
Clouds: sky clear below 12,000 feet AGL
Weather: no significant weather observed at this time

METAR text: GQNO 191600Z 03007KT 360V070 8000 NSC 38/M15 Q1008 NOSIG
Conditions at: GQNO (NOUAKCHOTT/OUMTO, MR) observed 1600 UTC 19 March 2019
Temperature: 38.0°C (100°F)
Dewpoint: -15.0°C ( 5°F) [RH =  3%]
Pressure (altimeter): 29.76 inches Hg (1008.0 mb)
Winds: from the NNE (30 degrees) at 8 MPH (7 knots; 3.6 m/s)
Visibility: 5 miles ( 8 km)
Ceiling: at least 12,000 feet AGL
Clouds: sky clear below 12,000 feet AGL
Weather: no significant weather observed at this time

METAR text: GQNO 191530Z 09008KT 040V110 8000 NSC 37/M15 Q1008 NOSIG
Conditions at: GQNO (NOUAKCHOTT/OUMTO, MR) observed 1530 UTC 19 March 2019
Temperature: 37.0°C (99°F)
Dewpoint: -15.0°C ( 5°F) [RH =  3%]
Pressure (altimeter): 29.76 inches Hg (1008.0 mb)
Winds: from the E (90 degrees) at 9 MPH (8 knots; 4.1 m/s)
Visibility: 5 miles ( 8 km)
Ceiling: at least 12,000 feet AGL
Clouds: sky clear below 12,000 feet AGL
Weather: no significant weather observed at this time

METAR text: GQNO 191500Z 04009KT 8000 NSC 37/M12 Q1008 NOSIG
Conditions at: GQNO (NOUAKCHOTT/OUMTO, MR) observed 1500 UTC 19 March 2019
Temperature: 37.0°C (99°F)
Dewpoint: -12.0°C (10°F) [RH =  4%]
Pressure (altimeter): 29.76 inches Hg (1008.0 mb)
Winds: from the NE (40 degrees) at 10 MPH (9 knots; 4.6 m/s)
Visibility: 5 miles ( 8 km)
Ceiling: at least 12,000 feet AGL
Clouds: sky clear below 12,000 feet AGL
Weather: no significant weather observed at this time

METAR text: GQNO 191430Z 06010KT 030V090 8000 NSC 36/M12 Q1009 NOSIG
Conditions at: GQNO (NOUAKCHOTT/OUMTO, MR) observed 1430 UTC 19 March 2019
Temperature: 36.0°C (97°F)
Dewpoint: -12.0°C (10°F) [RH =  4%]
Pressure (altimeter): 29.79 inches Hg (1009.0 mb)
Winds: from the ENE (60 degrees) at 12 MPH (10 knots; 5.1 m/s)
Visibility: 5 miles ( 8 km)
Ceiling: at least 12,000 feet AGL
Clouds: sky clear below 12,000 feet AGL
Weather: no significant weather observed at this time

METAR text: GQNO 191400Z 06013KT 030V100 8000 NSC 36/M12 Q1009 NOSIG
Conditions at: GQNO (NOUAKCHOTT/OUMTO, MR) observed 1400 UTC 19 March 2019
Temperature: 36.0°C (97°F)
Dewpoint: -12.0°C (10°F) [RH =  4%]
Pressure (altimeter): 29.79 inches Hg (1009.0 mb)
Winds: from the ENE (60 degrees) at 15 MPH (13 knots; 6.7 m/s)
Visibility: 5 miles ( 8 km)
Ceiling: at least 12,000 feet AGL
Clouds: sky clear below 12,000 feet AGL
Weather: no significant weather observed at this time

METAR text: GQNO 191330Z 08011KT 040V120 8000 NSC 36/M13 Q1010 NOSIG
Conditions at: GQNO (NOUAKCHOTT/OUMTO, MR) observed 1330 UTC 19 March 2019
Temperature: 36.0°C (97°F)
Dewpoint: -13.0°C ( 9°F) [RH =  4%]
Pressure (altimeter): 29.82 inches Hg (1010.0 mb)
Winds: from the E (80 degrees) at 13 MPH (11 knots; 5.7 m/s)
Visibility: 5 miles ( 8 km)
Ceiling: at least 12,000 feet AGL
Clouds: sky clear below 12,000 feet AGL
Weather: no significant weather observed at this time

METAR text: GQNO 191300Z 08012KT 040V100 8000 NSC 35/M13 Q1010 NOSIG
Conditions at: GQNO (NOUAKCHOTT/OUMTO, MR) observed 1300 UTC 19 March 2019
Temperature: 35.0°C (95°F)
Dewpoint: -13.0°C ( 9°F) [RH =  4%]
Pressure (altimeter): 29.82 inches Hg (1010.0 mb)
Winds: from the E (80 degrees) at 14 MPH (12 knots; 6.2 m/s)
Visibility: 5 miles ( 8 km)
Ceiling: at least 12,000 feet AGL
Clouds: sky clear below 12,000 feet AGL
Weather: no significant weather observed at this time

METAR text: GQNO 191230Z 07012KT 8000 NSC 34/M11 Q1011 NOSIG
Conditions at: GQNO (NOUAKCHOTT/OUMTO, MR) observed 1230 UTC 19 March 2019
Temperature: 34.0°C (93°F)
Dewpoint: -11.0°C (12°F) [RH =  5%]
Pressure (altimeter): 29.85 inches Hg (1011.0 mb)
Winds: from the ENE (70 degrees) at 14 MPH (12 knots; 6.2 m/s)
Visibility: 5 miles ( 8 km)
Ceiling: at least 12,000 feet AGL
Clouds: sky clear below 12,000 feet AGL
Weather: no significant weather observed at this time

METAR text: GQNO 191200Z 06012KT 8000 NSC 33/M12 Q1011 NOSIG
Conditions at: GQNO (NOUAKCHOTT/OUMTO, MR) observed 1200 UTC 19 March 2019
Temperature: 33.0°C (91°F)
Dewpoint: -12.0°C (10°F) [RH =  5%]
Pressure (altimeter): 29.85 inches Hg (1011.0 mb)
Winds: from the ENE (60 degrees) at 14 MPH (12 knots; 6.2 m/s)
Visibility: 5 miles ( 8 km)
Ceiling: at least 12,000 feet AGL
Clouds: sky clear below 12,000 feet AGL
Weather: no significant weather observed at this time

METAR text: GQNO 191130Z 06010KT 8000 NSC 31/M11 Q1012 NOSIG
Conditions at: GQNO (NOUAKCHOTT/OUMTO, MR) observed 1130 UTC 19 March 2019
Temperature: 31.0°C (88°F)
Dewpoint: -11.0°C (12°F) [RH =  6%]
Pressure (altimeter): 29.88 inches Hg (1012.0 mb)
Winds: from the ENE (60 degrees) at 12 MPH (10 knots; 5.1 m/s)
Visibility: 5 miles ( 8 km)
Ceiling: at least 12,000 feet AGL
Clouds: sky clear below 12,000 feet AGL
Weather: no significant weather observed at this time

METAR text: GQNO 191100Z 05011KT 8000 NSC 29/M10 Q1012 NOSIG
Conditions at: GQNO (NOUAKCHOTT/OUMTO, MR) observed 1100 UTC 19 March 2019
Temperature: 29.0°C (84°F)
Dewpoint: -10.0°C (14°F) [RH =  7%]
Pressure (altimeter): 29.88 inches Hg (1012.0 mb)
Winds: from the NE (50 degrees) at 13 MPH (11 knots; 5.7 m/s)
Visibility: 5 miles ( 8 km)
Ceiling: at least 12,000 feet AGL
Clouds: sky clear below 12,000 feet AGL
Weather: no significant weather observed at this time

METAR text: GQNO 191030Z 05013KT 8000 NSC 28/M10 Q1012 NOSIG
Conditions at: GQNO (NOUAKCHOTT/OUMTO, MR) observed 1030 UTC 19 March 2019
Temperature: 28.0°C (82°F)
Dewpoint: -10.0°C (14°F) [RH =  8%]
Pressure (altimeter): 29.88 inches Hg (1012.0 mb)
Winds: from the NE (50 degrees) at 15 MPH (13 knots; 6.7 m/s)
Visibility: 5 miles ( 8 km)
Ceiling: at least 12,000 feet AGL
Clouds: sky clear below 12,000 feet AGL
Weather: no significant weather observed at this time

METAR text: GQNO 191000Z 04013KT 8000 NSC 25/M07 Q1011 NOSIG
Conditions at: GQNO (NOUAKCHOTT/OUMTO, MR) observed 1000 UTC 19 March 2019
Temperature: 25.0°C (77°F)
Dewpoint: -7.0°C (19°F) [RH = 11%]
Pressure (altimeter): 29.85 inches Hg (1011.0 mb)
Winds: from the NE (40 degrees) at 15 MPH (13 knots; 6.7 m/s)
Visibility: 5 miles ( 8 km)
Ceiling: at least 12,000 feet AGL
Clouds: sky clear below 12,000 feet AGL
Weather: no significant weather observed at this time

METAR text: GQNO 190930Z 04013KT 8000 NSC 24/M05 Q1011 NOSIG
Conditions at: GQNO (NOUAKCHOTT/OUMTO, MR) observed 0930 UTC 19 March 2019
Temperature: 24.0°C (75°F)
Dewpoint: -5.0°C (23°F) [RH = 14%]
Pressure (altimeter): 29.85 inches Hg (1011.0 mb)
Winds: from the NE (40 degrees) at 15 MPH (13 knots; 6.7 m/s)
Visibility: 5 miles ( 8 km)
Ceiling: at least 12,000 feet AGL
Clouds: sky clear below 12,000 feet AGL
Weather: no significant weather observed at this time

METAR text: GQNO 190900Z 03010KT 8000 NSC 22/M03 Q1011 NOSIG
Conditions at: GQNO (NOUAKCHOTT/OUMTO, MR) observed 0900 UTC 19 March 2019
Temperature: 22.0°C (72°F)
Dewpoint: -3.0°C (27°F) [RH = 19%]
Pressure (altimeter): 29.85 inches Hg (1011.0 mb)
Winds: from the NNE (30 degrees) at 12 MPH (10 knots; 5.1 m/s)
Visibility: 5 miles ( 8 km)
Ceiling: at least 12,000 feet AGL
Clouds: sky clear below 12,000 feet AGL
Weather: no significant weather observed at this time

METAR text: GQNO 190830Z 02010KT CAVOK 21/M02 Q1011 NOSIG
Conditions at: GQNO (NOUAKCHOTT/OUMTO, MR) observed 0830 UTC 19 March 2019
Temperature: 21.0°C (70°F)
Dewpoint: -2.0°C (28°F) [RH = 21%]
Pressure (altimeter): 29.85 inches Hg (1011.0 mb)
Winds: from the NNE (20 degrees) at 12 MPH (10 knots; 5.1 m/s)
Visibility: 6 or more miles (10+ km)
Ceiling: ceiling and visibility are OK
Clouds: unknown
Weather: no significant weather observed at this time

METAR text: GQNO 190800Z 01011KT CAVOK 20/00 Q1011 NOSIG
Conditions at: GQNO (NOUAKCHOTT/OUMTO, MR) observed 0800 UTC 19 March 2019
Temperature: 20.0°C (68°F)
Dewpoint: 0.0°C (32°F) [RH = 26%]
Pressure (altimeter): 29.85 inches Hg (1011.0 mb)
Winds: from the N (10 degrees) at 13 MPH (11 knots; 5.7 m/s)
Visibility: 6 or more miles (10+ km)
Ceiling: ceiling and visibility are OK
Clouds: unknown
Weather: no significant weather observed at this time

METAR text: GQNO 190730Z 01012KT CAVOK 19/00 Q1011 NOSIG
Conditions at: GQNO (NOUAKCHOTT/OUMTO, MR) observed 0730 UTC 19 March 2019
Temperature: 19.0°C (66°F)
Dewpoint: 0.0°C (32°F) [RH = 28%]
Pressure (altimeter): 29.85 inches Hg (1011.0 mb)
Winds: from the N (10 degrees) at 14 MPH (12 knots; 6.2 m/s)
Visibility: 6 or more miles (10+ km)
Ceiling: ceiling and visibility are OK
Clouds: unknown
Weather: no significant weather observed at this time

METAR text: GQNO 190700Z 01011KT CAVOK 20/01 Q1010 NOSIG
Conditions at: GQNO (NOUAKCHOTT/OUMTO, MR) observed 0700 UTC 19 March 2019
Temperature: 20.0°C (68°F)
Dewpoint: 1.0°C (34°F) [RH = 28%]
Pressure (altimeter): 29.82 inches Hg (1010.0 mb)
Winds: from the N (10 degrees) at 13 MPH (11 knots; 5.7 m/s)
Visibility: 6 or more miles (10+ km)
Ceiling: ceiling and visibility are OK
Clouds: unknown
Weather: no significant weather observed at this time

METAR text: GQNO 190630Z 01012KT CAVOK 20/05 Q1010 NOSIG
Conditions at: GQNO (NOUAKCHOTT/OUMTO, MR) observed 0630 UTC 19 March 2019
Temperature: 20.0°C (68°F)
Dewpoint: 5.0°C (41°F) [RH = 37%]
Pressure (altimeter): 29.82 inches Hg (1010.0 mb)
Winds: from the N (10 degrees) at 14 MPH (12 knots; 6.2 m/s)
Visibility: 6 or more miles (10+ km)
Ceiling: ceiling and visibility are OK
Clouds: unknown
Weather: no significant weather observed at this time

METAR text: GQNO 190600Z 36011KT CAVOK 20/07 Q1009 NOSIG
Conditions at: GQNO (NOUAKCHOTT/OUMTO, MR) observed 0600 UTC 19 March 2019
Temperature: 20.0°C (68°F)
Dewpoint: 7.0°C (45°F) [RH = 43%]
Pressure (altimeter): 29.79 inches Hg (1009.0 mb)
Winds: from the N (360 degrees) at 13 MPH (11 knots; 5.7 m/s)
Visibility: 6 or more miles (10+ km)
Ceiling: ceiling and visibility are OK
Clouds: unknown
Weather: no significant weather observed at this time

METAR text: GQNO 190530Z 36011KT CAVOK 19/09 Q1009 NOSIG
Conditions at: GQNO (NOUAKCHOTT/OUMTO, MR) observed 0530 UTC 19 March 2019
Temperature: 19.0°C (66°F)
Dewpoint: 9.0°C (48°F) [RH = 52%]
Pressure (altimeter): 29.79 inches Hg (1009.0 mb)
Winds: from the N (360 degrees) at 13 MPH (11 knots; 5.7 m/s)
Visibility: 6 or more miles (10+ km)
Ceiling: ceiling and visibility are OK
Clouds: unknown
Weather: no significant weather observed at this time

METAR text: GQNO 190500Z 36012KT CAVOK 19/09 Q1009 NOSIG
Conditions at: GQNO (NOUAKCHOTT/OUMTO, MR) observed 0500 UTC 19 March 2019
Temperature: 19.0°C (66°F)
Dewpoint: 9.0°C (48°F) [RH = 52%]
Pressure (altimeter): 29.79 inches Hg (1009.0 mb)
Winds: from the N (360 degrees) at 14 MPH (12 knots; 6.2 m/s)
Visibility: 6 or more miles (10+ km)
Ceiling: ceiling and visibility are OK
Clouds: unknown
Weather: no significant weather observed at this time

METAR text: GQNO 190430Z 36012KT CAVOK 18/10 Q1009 NOSIG
Conditions at: GQNO (NOUAKCHOTT/OUMTO, MR) observed 0430 UTC 19 March 2019
Temperature: 18.0°C (64°F)
Dewpoint: 10.0°C (50°F) [RH = 59%]
Pressure (altimeter): 29.79 inches Hg (1009.0 mb)
Winds: from the N (360 degrees) at 14 MPH (12 knots; 6.2 m/s)
Visibility: 6 or more miles (10+ km)
Ceiling: ceiling and visibility are OK
Clouds: unknown
Weather: no significant weather observed at this time

METAR text: GQNO 190400Z 36010KT CAVOK 18/10 Q1009 NOSIG
Conditions at: GQNO (NOUAKCHOTT/OUMTO, MR) observed 0400 UTC 19 March 2019
Temperature: 18.0°C (64°F)
Dewpoint: 10.0°C (50°F) [RH = 59%]
Pressure (altimeter): 29.79 inches Hg (1009.0 mb)
Winds: from the N (360 degrees) at 12 MPH (10 knots; 5.1 m/s)
Visibility: 6 or more miles (10+ km)
Ceiling: ceiling and visibility are OK
Clouds: unknown
Weather: no significant weather observed at this time

METAR text: GQNO 190330Z 36009KT CAVOK 18/11 Q1010 NOSIG
Conditions at: GQNO (NOUAKCHOTT/OUMTO, MR) observed 0330 UTC 19 March 2019
Temperature: 18.0°C (64°F)
Dewpoint: 11.0°C (52°F) [RH = 64%]
Pressure (altimeter): 29.82 inches Hg (1010.0 mb)
Winds: from the N (360 degrees) at 10 MPH (9 knots; 4.6 m/s)
Visibility: 6 or more miles (10+ km)
Ceiling: ceiling and visibility are OK
Clouds: unknown
Weather: no significant weather observed at this time

Forecast for: GQNO (NOUAKCHOTT/OUMTO, MR)
Text: TAF GQNO 201100Z 2012/2118 08012KT 6000 NSC
Forecast period: 1200 to 1500 UTC 20 March 2019
Forecast type: FROM: standard forecast or significant change
Winds: from the E (80 degrees) at 14 MPH (12 knots; 6.2 m/s)
Visibility: 4 miles (6 km)
Ceiling: unknown
Clouds: missing
Weather: no significant weather forecast for this period
Text: BECMG 2015/2018 34012KT
Forecast period: 1500 UTC 20 March 2019 to 1800 UTC 21 March 2019
Forecast type: BECOMING: Conditions expected to become as follows by 1800 UTC 20 March 2019
Winds: from the NNW (340 degrees) at 14 MPH (12 knots; 6.2 m/s)
Visibility: 4 miles (6 km)
Ceiling: unknown
Clouds: missing
Weather: no significant weather forecast for this period